Regent, North Dakota
Current Conditions -  °F | °C
As of 1:53 AM on Friday 31 Oct 2014 (Local Time) from KHEI Reporting Station
Overcast Overcast  
Wind Chill: 18°   Ceiling: 800
Heat Index: 29°   Visibility: 10mi
Dew Point: 24°   Wind: 15mph
Humidity: 82%   Direction: 140°SE
Pressure: 30.5"   Gusts: NA
Location:  46.42°N, 102.56°W
Report Text: KHEI 310753Z AUTO 14013KT 10SM OVC008 M02/M04 A3050 RMK AO2 SLP355 T10171044
Loading
Personal Weather Stations






























Interactive Weather Map
Tropical Storm Tracking
New forecast layout! Learn more

10-Day Weather Forecast

Advertisements
Track Severe Weather on mobile